createdAt,value
2018-08-18T00:00:18.448Z,102069.91
2018-08-18T00:02:47.583Z,102073.09
2018-08-18T00:05:17.697Z,102067.30
2018-08-18T00:07:46.945Z,102068.23
2018-08-18T00:10:19.021Z,102074.05
2018-08-18T00:12:48.207Z,102070.06
2018-08-18T00:15:17.350Z,102072.83
2018-08-18T00:17:46.441Z,102074.17
2018-08-18T00:20:21.843Z,102079.99
2018-08-18T00:22:50.936Z,102077.30
2018-08-18T00:25:20.295Z,102073.63
2018-08-18T00:27:49.392Z,102079.03
2018-08-18T00:30:23.814Z,102075.53
2018-08-18T00:32:54.248Z,102073.41
2018-08-18T00:35:23.687Z,102080.84
2018-08-18T00:37:52.919Z,102076.22
2018-08-18T00:40:21.936Z,102076.10
2018-08-18T00:42:51.254Z,102079.50
2018-08-18T00:45:20.332Z,102081.56
2018-08-18T00:47:49.642Z,102077.45
2018-08-18T00:50:34.772Z,102075.20
2018-08-18T00:53:04.670Z,102072.27
2018-08-18T00:55:34.078Z,102074.01
2018-08-18T00:58:03.370Z,102074.88
2018-08-18T01:00:32.513Z,102067.52
2018-08-18T01:03:01.770Z,102071.57
2018-08-18T01:05:30.835Z,102065.44
2018-08-18T01:07:59.901Z,102067.68
2018-08-18T01:10:28.902Z,102065.05
2018-08-18T01:12:58.201Z,102063.22
2018-08-18T01:15:28.249Z,102068.38
2018-08-18T01:17:57.587Z,102060.19
2018-08-18T01:20:26.713Z,102064.34
2018-08-18T01:23:01.818Z,102070.17
2018-08-18T01:25:31.123Z,102062.98
2018-08-18T01:28:00.247Z,102068.44
2018-08-18T01:30:29.355Z,102075.13
2018-08-18T01:32:58.413Z,102082.95
2018-08-18T01:35:27.497Z,102084.30
2018-08-18T01:37:56.547Z,102090.56
2018-08-18T01:40:25.609Z,102086.13
2018-08-18T01:42:54.715Z,102082.47
2018-08-18T01:45:23.831Z,102084.84
2018-08-18T01:47:53.015Z,102082.53
2018-08-18T01:50:22.116Z,102088.41
2018-08-18T01:52:51.195Z,102082.14
2018-08-18T01:55:20.307Z,102081.28
2018-08-18T01:57:49.617Z,102080.47
2018-08-18T02:00:25.723Z,102076.42
2018-08-18T02:02:54.863Z,102079.51
2018-08-18T02:05:26.628Z,102074.69
2018-08-18T02:07:55.703Z,102079.23
2018-08-18T02:10:24.795Z,102071.99
2018-08-18T02:13:01.856Z,102072.92
2018-08-18T02:15:31.511Z,102071.09
2018-08-18T02:18:00.590Z,102065.34
2018-08-18T02:20:29.647Z,102059.49
2018-08-18T02:22:58.692Z,102056.38
2018-08-18T02:25:27.763Z,102043.25
2018-08-18T02:27:56.906Z,102049.30
2018-08-18T02:30:25.965Z,102051.19
2018-08-18T02:32:55.071Z,102054.31
2018-08-18T02:35:24.431Z,102049.25
2018-08-18T02:37:53.595Z,102054.16
2018-08-18T02:40:22.668Z,102056.05
2018-08-18T02:42:51.739Z,102054.70
2018-08-18T02:45:20.802Z,102048.92
2018-08-18T02:48:04.355Z,102054.38
2018-08-18T02:50:33.490Z,102048.59
2018-08-18T02:53:07.844Z,102047.72
2018-08-18T02:55:36.899Z,102050.42
2018-08-18T02:58:05.895Z,102052.16
2018-08-18T03:00:34.979Z,102054.05
2018-08-18T03:03:04.062Z,102047.84
2018-08-18T03:05:33.132Z,102053.72
2018-08-18T03:08:02.258Z,102052.70
2018-08-18T03:10:31.397Z,102055.55
2018-08-18T03:13:01.318Z,102054.20
2018-08-18T03:16:09.729Z,102047.19
2018-08-18T03:18:43.502Z,102050.42
2018-08-18T03:21:18.405Z,102046.47
2018-08-18T03:23:58.859Z,102052.34
2018-08-18T03:27:03.796Z,102050.25
2018-08-18T03:29:42.010Z,102047.55
2018-08-18T03:32:11.425Z,102049.38
2018-08-18T03:34:40.493Z,102049.92
2018-08-18T03:37:26.150Z,102049.53
2018-08-18T03:39:55.385Z,102048.91
2018-08-18T03:42:30.342Z,102040.91
2018-08-18T03:44:59.403Z,102044.95
2018-08-18T03:47:28.447Z,102036.98
2018-08-18T03:49:57.627Z,102043.51
2018-08-18T03:52:26.755Z,102038.59
2018-08-18T03:54:56.032Z,102040.81
2018-08-18T03:57:30.493Z,102040.33
2018-08-18T03:59:59.590Z,102043.93
2018-08-18T04:02:28.639Z,102047.64
2018-08-18T04:05:01.923Z,102042.25
2018-08-18T04:07:30.944Z,102045.82
2018-08-18T04:10:04.200Z,102039.56
2018-08-18T04:12:33.351Z,102043.60
2018-08-18T04:15:02.415Z,102050.88
2018-08-18T04:17:31.731Z,102047.55
2018-08-18T04:20:06.663Z,102048.09
2018-08-18T04:22:35.777Z,102045.88
2018-08-18T04:25:05.746Z,102044.14
2018-08-18T04:27:44.763Z,102047.37
2018-08-18T04:30:16.023Z,102040.16
2018-08-18T04:32:56.675Z,102050.02
2018-08-18T04:35:27.395Z,102054.12
2018-08-18T04:37:57.605Z,102044.35
2018-08-18T04:40:26.937Z,102059.56
2018-08-18T04:42:58.093Z,102063.22
2018-08-18T04:45:27.235Z,102069.91
2018-08-18T04:47:56.296Z,102070.44
2018-08-18T04:50:25.399Z,102069.09
2018-08-18T04:52:55.092Z,102076.22
2018-08-18T04:55:24.333Z,102073.95
2018-08-18T04:57:53.444Z,102077.66
2018-08-18T05:00:22.542Z,102075.89
2018-08-18T05:02:58.796Z,102077.09
2018-08-18T05:05:29.329Z,102081.02
2018-08-18T05:07:59.270Z,102082.42
2018-08-18T05:10:28.578Z,102084.79
2018-08-18T05:12:57.753Z,102081.34
2018-08-18T05:15:26.924Z,102082.78
2018-08-18T05:17:56.138Z,102090.53
2018-08-18T05:20:26.533Z,102094.05
2018-08-18T05:22:57.665Z,102089.91
2018-08-18T05:25:37.038Z,102086.41
2018-08-18T05:28:06.119Z,102091.68
2018-08-18T05:30:35.210Z,102081.34
2018-08-18T05:33:04.324Z,102094.28
2018-08-18T05:35:33.560Z,102092.55
2018-08-18T05:38:02.724Z,102087.63
2018-08-18T05:40:33.092Z,102086.67
2018-08-18T05:43:02.632Z,102089.80
2018-08-18T05:45:34.578Z,102088.50
2018-08-18T05:48:03.828Z,102090.87
2018-08-18T05:50:32.896Z,102092.22
2018-08-18T05:53:21.606Z,102094.28
2018-08-18T05:55:51.014Z,102098.21
2018-08-18T05:58:20.071Z,102094.61
2018-08-18T06:00:50.865Z,102097.20
2018-08-18T06:03:21.084Z,102097.58
2018-08-18T06:05:50.258Z,102095.75
2018-08-18T06:08:19.513Z,102103.45
2018-08-18T06:10:48.824Z,102105.28
2018-08-18T06:13:21.869Z,102104.66
2018-08-18T06:16:06.236Z,102101.42
2018-08-18T06:18:37.097Z,102104.98
2018-08-18T06:21:06.977Z,102103.01
2018-08-18T06:23:36.958Z,102098.04
2018-08-18T06:26:06.171Z,102107.80
2018-08-18T06:28:35.248Z,102100.20
2018-08-18T06:31:04.677Z,102100.58
2018-08-18T06:33:33.742Z,102105.28
2018-08-18T06:36:03.400Z,102103.78
2018-08-18T06:38:32.396Z,102097.70
2018-08-18T06:41:02.736Z,102099.73
2018-08-18T06:43:33.236Z,102101.36
2018-08-18T06:46:02.749Z,102097.73
2018-08-18T06:48:33.263Z,102101.47
2018-08-18T06:51:02.572Z,102105.69
2018-08-18T06:53:37.162Z,102107.14
2018-08-18T06:56:06.562Z,102113.13
2018-08-18T06:58:35.955Z,102112.44
2018-08-18T07:01:05.415Z,102109.25
2018-08-18T07:03:37.053Z,102113.14
2018-08-18T07:06:06.868Z,102107.68
2018-08-18T07:08:41.290Z,102104.22
2018-08-18T07:11:10.814Z,102100.39
2018-08-18T07:13:40.576Z,102095.90
2018-08-18T07:16:09.678Z,102099.98
2018-08-18T07:18:38.953Z,102102.39
2018-08-18T07:21:08.163Z,102101.03
2018-08-18T07:23:37.252Z,102098.88
2018-08-18T07:26:06.845Z,102103.34
2018-08-18T07:28:35.988Z,102103.50
2018-08-18T07:31:05.326Z,102107.97
2018-08-18T07:33:34.446Z,102101.44
2018-08-18T07:36:03.523Z,102111.05
2018-08-18T07:38:32.614Z,102110.02
2018-08-18T07:41:01.671Z,102113.59
2018-08-18T07:43:33.943Z,102109.62
2018-08-18T07:46:04.632Z,102108.66
2018-08-18T07:48:33.688Z,102111.55
2018-08-18T07:51:02.776Z,102109.95
2018-08-18T07:53:31.950Z,102114.95
2018-08-18T07:56:01.169Z,102113.84
2018-08-18T07:58:30.317Z,102127.67
2018-08-18T08:01:00.331Z,102112.49
2018-08-18T08:03:29.727Z,102115.20
2018-08-18T08:05:58.849Z,102123.45
2018-08-18T08:08:34.448Z,102123.84
2018-08-18T08:11:09.027Z,102127.44
2018-08-18T08:13:38.134Z,102128.07
2018-08-18T08:16:07.300Z,102122.02
2018-08-18T08:18:36.385Z,102130.92
2018-08-18T08:21:05.603Z,102129.57
2018-08-18T08:23:34.791Z,102126.80
2018-08-18T08:26:03.851Z,102127.18
2018-08-18T08:28:32.966Z,102129.89
2018-08-18T08:31:02.094Z,102131.41
2018-08-18T08:33:35.208Z,102137.02
2018-08-18T08:36:08.905Z,102140.70
2018-08-18T08:38:50.424Z,102136.56
2018-08-18T08:41:19.985Z,102136.56
2018-08-18T08:43:49.080Z,102132.30
2018-08-18T08:46:18.311Z,102136.80
2018-08-18T08:48:52.345Z,102131.49
2018-08-18T08:51:21.382Z,102135.13
2018-08-18T08:53:50.704Z,102141.34
2018-08-18T08:56:24.841Z,102143.00
2018-08-18T08:58:53.995Z,102138.25
2018-08-18T09:01:23.263Z,102143.17
2018-08-18T09:03:52.466Z,102140.53
2018-08-18T09:06:21.644Z,102156.05
2018-08-18T09:08:55.168Z,102162.01
2018-08-18T09:11:24.443Z,102159.86
2018-08-18T09:14:03.277Z,102159.30
2018-08-18T09:16:33.430Z,102166.61
2018-08-18T09:19:02.524Z,102163.38
2018-08-18T09:21:53.786Z,102154.66
2018-08-18T09:24:25.235Z,102165.72
2018-08-18T09:26:55.455Z,102168.69
2018-08-18T09:29:25.564Z,102161.67
2018-08-18T09:31:54.704Z,102161.73
2018-08-18T09:34:23.836Z,102155.47
2018-08-18T09:36:52.824Z,102156.95
2018-08-18T09:39:33.265Z,102159.91
2018-08-18T09:42:11.952Z,102163.25
2018-08-18T09:44:43.185Z,102162.41
2018-08-18T09:47:12.453Z,102161.06
2018-08-18T09:49:41.639Z,102160.52
2018-08-18T09:52:12.659Z,102162.09
2018-08-18T09:54:41.744Z,102162.89
2018-08-18T09:57:11.449Z,102164.01
2018-08-18T09:59:40.600Z,102163.24
2018-08-18T10:02:11.308Z,102171.67
2018-08-18T10:04:40.303Z,102168.31
2018-08-18T10:07:09.425Z,102169.13
2018-08-18T10:09:38.505Z,102173.56
2018-08-18T10:12:13.019Z,102166.81
2018-08-18T10:14:42.420Z,102169.28
2018-08-18T10:17:11.517Z,102168.38
2018-08-18T10:19:40.629Z,102167.73
2018-08-18T10:22:09.720Z,102164.91
2018-08-18T10:24:39.524Z,102172.80
2018-08-18T10:27:08.554Z,102175.60
2018-08-18T10:29:37.812Z,102170.05
2018-08-18T10:32:06.883Z,102170.91
2018-08-18T10:34:36.007Z,102169.02
2018-08-18T10:37:06.155Z,102168.43
2018-08-18T10:39:36.411Z,102171.00
2018-08-18T10:42:09.325Z,102168.05
2018-08-18T10:44:41.205Z,102161.94
2018-08-18T10:47:22.127Z,102171.29
2018-08-18T10:50:02.607Z,102166.59
2018-08-18T10:52:43.463Z,102173.33
2018-08-18T10:55:13.850Z,102175.43
2018-08-18T10:57:54.727Z,102173.22
2018-08-18T11:00:24.695Z,102171.97
2018-08-18T11:02:55.016Z,102172.14
2018-08-18T11:05:25.021Z,102171.81
2018-08-18T11:08:00.060Z,102170.25
2018-08-18T11:10:30.643Z,102175.87
2018-08-18T11:12:59.731Z,102177.03
2018-08-18T11:15:28.768Z,102179.10
2018-08-18T11:17:58.365Z,102174.03
2018-08-18T11:20:28.763Z,102177.33
2018-08-18T11:23:05.816Z,102174.69
2018-08-18T11:25:38.099Z,102172.84
2018-08-18T11:28:08.228Z,102169.55
2018-08-18T11:30:37.390Z,102168.94
2018-08-18T11:33:06.779Z,102167.22
2018-08-18T11:35:36.288Z,102166.80
2018-08-18T11:38:09.503Z,102174.73
2018-08-18T11:40:38.633Z,102172.13
2018-08-18T11:43:10.424Z,102169.96
2018-08-18T11:45:40.285Z,102166.09
2018-08-18T11:48:22.304Z,102167.44
2018-08-18T11:50:52.699Z,102173.69
2018-08-18T11:53:21.836Z,102173.11
2018-08-18T11:55:50.879Z,102166.47
2018-08-18T11:58:22.069Z,102173.64
2018-08-18T12:00:53.499Z,102173.01
2018-08-18T12:03:25.107Z,102169.77
2018-08-18T12:05:55.340Z,102171.98
2018-08-18T12:08:28.642Z,102167.22
2018-08-18T12:11:06.831Z,102167.88
2018-08-18T12:13:41.031Z,102169.28
2018-08-18T12:16:15.750Z,102164.37
2018-08-18T12:18:45.920Z,102161.68
2018-08-18T12:21:15.421Z,102167.83
2018-08-18T12:23:47.715Z,102167.67
2018-08-18T12:26:19.076Z,102164.10
2018-08-18T12:28:56.279Z,102165.35
2018-08-18T12:31:26.508Z,102169.28
2018-08-18T12:33:55.725Z,102169.32
2018-08-18T12:36:25.158Z,102165.05
2018-08-18T12:38:55.731Z,102158.55
2018-08-18T12:41:24.936Z,102159.20
2018-08-18T12:43:55.763Z,102162.45
2018-08-18T12:46:30.419Z,102156.40
2018-08-18T12:48:59.585Z,102160.16
2018-08-18T12:51:28.706Z,102160.88
2018-08-18T12:53:58.095Z,102157.69
2018-08-18T12:56:28.207Z,102155.47
2018-08-18T12:58:57.368Z,102154.76
2018-08-18T13:01:41.404Z,102156.50
2018-08-18T13:04:15.186Z,102152.28
2018-08-18T13:06:48.596Z,102161.19
2018-08-18T13:09:25.714Z,102151.90
2018-08-18T13:11:56.237Z,102153.80
2018-08-18T13:14:29.215Z,102154.60
2018-08-18T13:16:58.443Z,102152.98
2018-08-18T13:19:29.813Z,102151.58
2018-08-18T13:21:58.882Z,102161.19
2018-08-18T13:24:30.247Z,102158.33
2018-08-18T13:26:59.854Z,102155.08
2018-08-18T13:29:28.922Z,102153.89
2018-08-18T13:31:58.028Z,102160.48
2018-08-18T13:34:27.157Z,102153.73
2018-08-18T13:36:56.223Z,102157.55
2018-08-18T13:39:25.440Z,102153.41
2018-08-18T13:41:54.729Z,102155.72
2018-08-18T13:44:29.823Z,102151.80
2018-08-18T13:46:58.867Z,102149.42
2018-08-18T13:49:28.371Z,102144.12
2018-08-18T13:51:57.561Z,102145.20
2018-08-18T13:54:26.654Z,102144.17
2018-08-18T13:56:55.771Z,102141.73
2018-08-18T13:59:46.221Z,102140.31
2018-08-18T14:02:15.537Z,102141.08
2018-08-18T14:04:44.792Z,102145.88
2018-08-18T14:07:14.254Z,102139.91
2018-08-18T14:09:46.454Z,102143.55
2018-08-18T14:12:16.971Z,102143.66
2018-08-18T14:14:46.812Z,102145.94
2018-08-18T14:17:17.030Z,102140.62
2018-08-18T14:19:46.408Z,102136.02
2018-08-18T14:22:18.662Z,102135.14
2018-08-18T14:24:47.839Z,102133.86
2018-08-18T14:27:19.320Z,102133.80
2018-08-18T14:29:48.422Z,102134.81
2018-08-18T14:32:22.857Z,102134.18
2018-08-18T14:34:57.262Z,102131.96
2018-08-18T14:37:26.368Z,102136.33
2018-08-18T14:39:55.504Z,102138.38
2018-08-18T14:42:24.825Z,102138.80
2018-08-18T14:44:56.240Z,102136.90
2018-08-18T14:47:25.492Z,102129.17
2018-08-18T14:50:27.912Z,102130.94
2018-08-18T14:52:57.326Z,102130.84
2018-08-18T14:55:26.655Z,102138.63
2018-08-18T14:58:00.650Z,102130.94
2018-08-18T15:00:30.086Z,102133.31
2018-08-18T15:02:59.290Z,102130.22
2018-08-18T15:05:28.426Z,102128.28
2018-08-18T15:07:58.754Z,102119.56
2018-08-18T15:10:38.039Z,102130.59
2018-08-18T15:13:08.180Z,102128.30
2018-08-18T15:15:37.817Z,102128.92
2018-08-18T15:18:16.860Z,102121.87
2018-08-18T15:20:46.521Z,102119.42
2018-08-18T15:23:16.462Z,102117.42
2018-08-18T15:25:46.347Z,102126.70
2018-08-18T15:28:17.639Z,102120.75
2018-08-18T15:30:49.209Z,102129.34
2018-08-18T15:33:20.745Z,102129.72
2018-08-18T15:35:49.911Z,102127.34
2018-08-18T15:38:19.403Z,102131.02
2018-08-18T15:40:48.511Z,102129.52
2018-08-18T15:43:18.084Z,102118.45
2018-08-18T15:45:58.626Z,102113.21
2018-08-18T15:48:27.971Z,102113.06
2018-08-18T15:50:57.627Z,102109.39
2018-08-18T15:53:51.654Z,102110.83
2018-08-18T15:56:21.920Z,102099.55
2018-08-18T15:58:51.695Z,102104.23
2018-08-18T16:01:37.183Z,102101.36
2018-08-18T16:04:06.380Z,102101.83
2018-08-18T16:06:35.696Z,102107.30
2018-08-18T16:09:08.211Z,102106.21
2018-08-18T16:11:37.342Z,102106.82
2018-08-18T16:14:06.795Z,102103.73
2018-08-18T16:16:51.334Z,102100.30
2018-08-18T16:19:20.780Z,102099.14
2018-08-18T16:21:50.566Z,102103.02
2018-08-18T16:24:42.403Z,102102.06
2018-08-18T16:27:12.525Z,102107.39
2018-08-18T16:29:42.832Z,102106.66
2018-08-18T16:32:17.053Z,102113.83
2018-08-18T16:34:47.240Z,102110.33
2018-08-18T16:37:16.439Z,102113.83
2018-08-18T16:39:45.807Z,102115.02
2018-08-18T16:42:15.920Z,102119.88
2018-08-18T16:44:45.376Z,102125.76
2018-08-18T16:47:15.016Z,102125.27
2018-08-18T16:49:44.016Z,102122.95
2018-08-18T16:52:14.056Z,102123.12
2018-08-18T16:54:43.551Z,102121.70
2018-08-18T16:57:12.711Z,102122.89
2018-08-18T16:59:41.904Z,102123.86
2018-08-18T17:02:26.293Z,102124.30
2018-08-18T17:04:56.125Z,102120.36
2018-08-18T17:07:27.444Z,102116.30
2018-08-18T17:09:57.358Z,102122.02
2018-08-18T17:12:30.731Z,102118.45
2018-08-18T17:15:00.204Z,102125.89
2018-08-18T17:17:29.235Z,102127.59
2018-08-18T17:19:58.612Z,102129.88
2018-08-18T17:22:28.461Z,102133.44
2018-08-18T17:24:57.908Z,102131.64
2018-08-18T17:27:30.327Z,102131.70
2018-08-18T17:30:02.058Z,102126.47
2018-08-18T17:32:31.116Z,102128.20
2018-08-18T17:35:00.476Z,102133.54
2018-08-18T17:37:29.532Z,102130.73
2018-08-18T17:39:59.436Z,102130.30
2018-08-18T17:42:28.822Z,102131.06
2018-08-18T17:44:57.887Z,102126.24
2018-08-18T17:47:27.021Z,102127.17
2018-08-18T17:49:57.550Z,102128.45
2018-08-18T17:52:27.775Z,102130.67
2018-08-18T17:55:08.655Z,102135.44
2018-08-18T17:57:38.453Z,102136.62
2018-08-18T18:00:14.341Z,102137.05
2018-08-18T18:02:49.264Z,102133.34
2018-08-18T18:05:20.553Z,102136.44
2018-08-18T18:07:56.090Z,102140.27
2018-08-18T18:10:27.286Z,102137.66
2018-08-18T18:12:56.735Z,102131.35
2018-08-18T18:15:27.909Z,102135.28
2018-08-18T18:17:57.101Z,102129.78
2018-08-18T18:20:28.486Z,102130.65
2018-08-18T18:22:58.366Z,102138.11
2018-08-18T18:25:27.999Z,102130.91
2018-08-18T18:27:57.770Z,102134.54
2018-08-18T18:30:27.949Z,102132.25
2018-08-18T18:32:57.893Z,102125.95
2018-08-18T18:35:27.496Z,102130.42
2018-08-18T18:37:58.791Z,102119.43
2018-08-18T18:40:28.668Z,102114.28
2018-08-18T18:42:57.866Z,102119.11
2018-08-18T18:45:27.793Z,102117.56
2018-08-18T18:47:57.168Z,102120.20
2018-08-18T18:50:26.826Z,102121.84
2018-08-18T18:52:55.982Z,102124.86
2018-08-18T18:55:25.116Z,102125.66
2018-08-18T18:58:06.924Z,102121.61
2018-08-18T19:00:37.452Z,102127.49
2018-08-18T19:03:08.704Z,102128.63
2018-08-18T19:05:37.786Z,102132.93
2018-08-18T19:08:14.095Z,102132.86
2018-08-18T19:10:43.557Z,102128.20
2018-08-18T19:13:12.932Z,102133.73
2018-08-18T19:15:42.064Z,102147.02
2018-08-18T19:18:11.969Z,102139.13
2018-08-18T19:20:41.978Z,102146.14
2018-08-18T19:23:18.068Z,102143.06
2018-08-18T19:25:50.579Z,102145.76
2018-08-18T19:28:21.417Z,102150.52
2018-08-18T19:30:50.783Z,102155.82
2018-08-18T19:33:20.561Z,102154.98
2018-08-18T19:35:51.070Z,102150.06
2018-08-18T19:38:21.329Z,102166.40
2018-08-18T19:40:54.031Z,102167.59
2018-08-18T19:43:24.603Z,102169.69
2018-08-18T19:45:54.269Z,102165.47
2018-08-18T19:48:26.632Z,102171.67
2018-08-18T19:51:04.195Z,102173.51
2018-08-18T19:53:35.571Z,102171.12
2018-08-18T19:56:08.493Z,102167.84
2018-08-18T19:58:37.786Z,102173.19
2018-08-18T20:01:07.471Z,102169.52
2018-08-18T20:03:37.250Z,102171.61
2018-08-18T20:06:15.783Z,102167.08
2018-08-18T20:08:44.809Z,102171.06
2018-08-18T20:11:14.665Z,102169.13
2018-08-18T20:13:44.040Z,102169.61
2018-08-18T20:16:13.503Z,102168.09
2018-08-18T20:18:42.649Z,102167.72
2018-08-18T20:21:17.560Z,102169.32
2018-08-18T20:23:47.018Z,102172.02
2018-08-18T20:26:16.569Z,102170.13
2018-08-18T20:28:46.034Z,102171.80
2018-08-18T20:31:15.517Z,102166.39
2018-08-18T20:33:45.715Z,102166.30
2018-08-18T20:36:15.261Z,102166.63
2018-08-18T20:38:45.383Z,102169.70
2018-08-18T20:41:15.022Z,102167.33
2018-08-18T20:43:47.218Z,102168.61
2018-08-18T20:46:16.555Z,102165.49
2018-08-18T20:48:45.898Z,102164.72
2018-08-18T20:51:18.662Z,102163.75
2018-08-18T20:53:47.815Z,102167.26
2018-08-18T20:56:17.107Z,102162.78
2018-08-18T20:58:46.204Z,102162.89
2018-08-18T21:01:15.290Z,102161.38
2018-08-18T21:03:48.762Z,102163.59
2018-08-18T21:06:18.779Z,102162.66
2018-08-18T21:08:48.176Z,102158.12
2018-08-18T21:11:17.428Z,102158.92
2018-08-18T21:13:48.722Z,102158.60
2018-08-18T21:16:18.343Z,102153.03
2018-08-18T21:18:47.469Z,102152.72
2018-08-18T21:21:33.731Z,102155.90
2018-08-18T21:24:02.869Z,102158.02
2018-08-18T21:26:32.077Z,102157.09
2018-08-18T21:29:01.364Z,102164.78
2018-08-18T21:31:35.693Z,102160.27
2018-08-18T21:34:06.325Z,102168.38
2018-08-18T21:36:35.902Z,102163.42
2018-08-18T21:39:08.020Z,102168.38
2018-08-18T21:41:38.160Z,102171.15
2018-08-18T21:44:09.143Z,102174.40
2018-08-18T21:46:38.596Z,102170.77
2018-08-18T21:49:08.162Z,102173.59
2018-08-18T21:51:37.263Z,102172.89
2018-08-18T21:54:06.563Z,102171.06
2018-08-18T21:56:38.891Z,102175.34
2018-08-18T21:59:09.827Z,102174.47
2018-08-18T22:01:38.855Z,102172.50
2018-08-18T22:04:08.718Z,102173.50
2018-08-18T22:06:37.883Z,102170.91
2018-08-18T22:09:20.551Z,102174.53
2018-08-18T22:11:49.717Z,102172.86
2018-08-18T22:14:19.149Z,102166.27
2018-08-18T22:16:58.713Z,102169.07
2018-08-18T22:19:28.833Z,102169.94
2018-08-18T22:21:57.964Z,102171.35
2018-08-18T22:24:27.154Z,102177.17
2018-08-18T22:26:56.414Z,102171.30
2018-08-18T22:29:26.522Z,102171.30
2018-08-18T22:31:55.663Z,102168.66
2018-08-18T22:34:24.738Z,102168.17
2018-08-18T22:37:00.863Z,102170.10
2018-08-18T22:39:30.004Z,102166.92
2018-08-18T22:41:59.037Z,102160.23
2018-08-18T22:44:28.107Z,102167.40
2018-08-18T22:46:57.304Z,102169.62
2018-08-18T22:49:26.515Z,102167.53
2018-08-18T22:51:55.583Z,102167.40
2018-08-18T22:54:24.671Z,102167.08
2018-08-18T22:56:59.007Z,102163.41
2018-08-18T22:59:28.200Z,102158.49
2018-08-18T23:01:57.271Z,102154.50
2018-08-18T23:04:29.771Z,102158.17
2018-08-18T23:06:59.539Z,102158.23
2018-08-18T23:09:29.355Z,102161.36
2018-08-18T23:12:05.213Z,102163.64
2018-08-18T23:14:35.827Z,102160.55
2018-08-18T23:17:05.491Z,102163.80
2018-08-18T23:19:34.581Z,102156.95
2018-08-18T23:22:03.956Z,102154.25
2018-08-18T23:24:34.580Z,102153.48
2018-08-18T23:27:04.034Z,102151.64
2018-08-18T23:29:33.135Z,102150.68
2018-08-18T23:32:13.107Z,102155.59
2018-08-18T23:34:42.158Z,102145.76
2018-08-18T23:37:15.621Z,102153.06
2018-08-18T23:39:44.793Z,102146.79
2018-08-18T23:42:17.947Z,102148.14
2018-08-18T23:44:47.687Z,102144.09
2018-08-18T23:47:16.967Z,102143.70
2018-08-18T23:49:46.119Z,102134.70
2018-08-18T23:52:15.188Z,102140.10
2018-08-18T23:54:44.244Z,102136.05
2018-08-18T23:57:15.419Z,102142.03
2018-08-18T23:59:44.899Z,102141.55
